Terminal Aerodrome Forecast
Issued by NWS Twin Cities, MN

Home | Current Version | Previous Version | Graphics & Text | Print | Product List | Glossary On
Versions: 1 2 3 4 5 6 7 8 9 10 11 12 13
000
FTUS43 KMPX 272300
TAFSTC
TAF
KSTC 272331Z 2800/2824 02010KT P6SM SCT030 BKN050
     FM280500 34004KT P6SM SCT050
     FM281500 33008KT P6SM SCT040=

USA.gov is the U.S. government's official web portal to all federal, state and local government web resources and services.